Time;durP1;ratioP1;P1;durP2;ratioP2;P2;SDS_P1;SDS_P2;PMS_P1;PMS_P2;Temp;Humidity;BMP_temperature;BMP_pressure;BME280_temperature;BME280_humidity;BME280_pressure;Samples;Min_cycle;Max_cycle;Signal;HPM_P1;HPM_P2
2022/10/13 00:00:27;;;;;;;9.43;2.10;;;35.40;41.00;;;;;;5093312;28;20081;-66
2022/10/13 00:02:53;;;;;;;15.32;2.58;;;35.30;41.40;;;;;;5089521;28;20088;-66
2022/10/13 00:05:20;;;;;;;14.55;2.10;;;35.30;41.00;;;;;;5090091;28;20123;-68
2022/10/13 00:07:46;;;;;;;8.25;2.00;;;35.20;41.50;;;;;;5096566;28;20118;-67
2022/10/13 00:10:13;;;;;;;13.63;1.60;;;35.10;41.30;;;;;;5091753;28;20437;-69
2022/10/13 00:12:39;;;;;;;11.35;1.50;;;35.00;40.60;;;;;;5090775;28;20568;-66
2022/10/13 00:15:07;;;;;;;5.80;1.70;;;35.00;41.00;;;;;;5089731;28;20116;-67
2022/10/13 00:17:35;;;;;;;5.60;1.60;;;34.90;40.80;;;;;;5089372;28;20406;-67
2022/10/13 00:20:03;;;;;;;11.50;1.88;;;34.90;40.60;;;;;;5090046;28;20145;-68
2022/10/13 00:22:29;;;;;;;9.60;1.88;;;34.90;41.00;;;;;;5094019;28;20076;-67
2022/10/13 00:24:55;;;;;;;5.65;1.50;;;34.80;41.70;;;;;;5089019;28;20092;-67
2022/10/13 00:27:22;;;;;;;4.68;1.77;;;34.70;40.80;;;;;;5091219;28;20072;-67
2022/10/13 00:29:48;;;;;;;6.22;1.33;;;34.60;40.80;;;;;;5090419;28;20084;-68
2022/10/13 00:32:15;;;;;;;6.82;1.35;;;34.60;40.80;;;;;;5090172;28;20149;-67
2022/10/13 00:34:41;;;;;;;14.45;1.50;;;34.50;40.90;;;;;;5087483;28;20091;-67
2022/10/13 00:37:08;;;;;;;8.35;1.40;;;34.50;41.10;;;;;;5090411;28;20073;-68
2022/10/13 00:39:36;;;;;;;3.72;1.20;;;34.40;40.90;;;;;;5091767;28;20065;-66
2022/10/13 00:42:03;;;;;;;4.97;1.10;;;34.30;40.80;;;;;;5095912;28;20060;-68
2022/10/13 00:45:00;;;;;;;2.70;1.23;;;34.20;41.80;;;;;;5094115;28;20068;-69
2022/10/13 00:47:49;;;;;;;8.77;1.13;;;34.20;41.70;;;;;;5091927;28;20602;-69
2022/10/13 00:50:38;;;;;;;4.72;1.33;;;34.10;41.60;;;;;;5088879;28;20141;-68
2022/10/13 00:53:05;;;;;;;5.70;1.40;;;34.00;42.20;;;;;;5087720;28;20556;-67
2022/10/13 00:55:35;;;;;;;8.20;1.88;;;33.90;42.30;;;;;;5091122;28;20085;-69
2022/10/13 00:58:05;;;;;;;13.35;1.95;;;33.90;42.20;;;;;;5090725;28;20068;-67
2022/10/13 01:00:33;;;;;;;12.95;2.15;;;33.80;42.20;;;;;;5091577;28;20619;-66
2022/10/13 01:03:01;;;;;;;12.00;1.80;;;33.70;42.80;;;;;;5091511;28;20088;-70
2022/10/13 01:05:28;;;;;;;11.50;1.95;;;33.70;42.50;;;;;;5088328;28;20085;-70
2022/10/13 01:07:56;;;;;;;8.48;1.85;;;33.60;42.30;;;;;;5091045;28;20072;-67
2022/10/13 01:10:54;;;;;;;9.90;1.77;;;33.50;43.20;;;;;;5089072;28;20092;-67
2022/10/13 01:14:12;;;;;;;10.60;1.80;;;33.50;44.20;;;;;;5089180;28;20105;-68
2022/10/13 01:17:16;;;;;;;11.30;2.03;;;33.30;42.80;;;;;;5066061;28;20101;-67
2022/10/13 01:19:54;;;;;;;16.15;1.70;;;33.20;43.00;;;;;;5036169;28;20081;-68
2022/10/13 01:22:23;;;;;;;16.35;2.03;;;33.10;43.10;;;;;;5030886;28;20074;-70
2022/10/13 01:25:08;;;;;;;15.90;2.03;;;33.10;44.50;;;;;;5030550;28;20140;-68
2022/10/13 01:27:41;;;;;;;15.98;2.28;;;33.00;43.90;;;;;;5039566;28;20731;-69
2022/10/13 01:30:11;;;;;;;18.17;2.42;;;32.90;43.50;;;;;;5037194;28;20090;-70
2022/10/13 01:32:59;;;;;;;20.20;2.13;;;32.90;44.10;;;;;;5038612;28;20085;-68
2022/10/13 01:35:40;;;;;;;14.95;2.63;;;32.80;44.70;;;;;;5029015;28;20117;-69
2022/10/13 01:38:33;;;;;;;15.13;2.75;;;32.70;44.50;;;;;;5033312;28;20093;-68
2022/10/13 01:41:09;;;;;;;16.27;2.85;;;32.70;44.60;;;;;;5028149;28;20517;-68
2022/10/13 01:44:15;;;;;;;14.90;4.15;;;32.60;45.00;;;;;;5033633;28;20127;-67
2022/10/13 01:46:44;;;;;;;17.50;4.80;;;32.50;45.20;;;;;;5033622;28;20100;-67
2022/10/13 01:49:13;;;;;;;23.13;5.65;;;32.40;45.30;;;;;;5028195;28;20687;-67
2022/10/13 01:51:41;;;;;;;21.40;5.55;;;32.30;45.90;;;;;;5028795;28;20089;-68
2022/10/13 01:54:07;;;;;;;31.23;6.70;;;32.30;46.00;;;;;;5027853;28;20656;-68
2022/10/13 01:56:33;;;;;;;25.58;5.72;;;32.20;45.80;;;;;;5068232;28;20111;-70
2022/10/13 01:59:13;;;;;;;21.27;4.82;;;32.10;46.10;;;;;;5088263;28;20154;-69
2022/10/13 02:02:03;;;;;;;25.95;4.05;;;32.10;46.20;;;;;;5087459;28;20452;-71
2022/10/13 02:04:52;;;;;;;32.58;5.38;;;32.00;46.30;;;;;;5078315;28;20088;-68
2022/10/13 02:07:35;;;;;;;31.27;5.47;;;31.90;46.80;;;;;;5086995;28;21541;-67
2022/10/13 02:10:10;;;;;;;23.58;4.75;;;31.80;46.90;;;;;;5089778;28;20492;-67
2022/10/13 02:12:41;;;;;;;32.75;4.53;;;31.70;47.00;;;;;;5087421;28;20076;-66
2022/10/13 02:15:12;;;;;;;16.83;4.90;;;31.60;47.00;;;;;;5091220;28;20511;-68
2022/10/13 02:17:40;;;;;;;24.17;5.47;;;31.60;47.50;;;;;;5088176;28;20117;-67
2022/10/13 02:20:08;;;;;;;38.70;6.38;;;31.50;47.60;;;;;;5088649;28;20196;-68
2022/10/13 02:22:41;;;;;;;36.47;6.32;;;31.50;48.50;;;;;;5088204;28;20109;-66
2022/10/13 02:25:08;;;;;;;36.42;5.82;;;31.50;48.40;;;;;;5086709;28;20403;-68
2022/10/13 02:27:34;;;;;;;26.48;6.25;;;31.40;48.30;;;;;;5089376;28;20103;-68
2022/10/13 02:30:00;;;;;;;35.03;7.07;;;31.30;48.00;;;;;;5088060;28;20133;-66
2022/10/13 02:32:27;;;;;;;30.25;7.07;;;31.30;48.30;;;;;;5087676;28;20195;-68
2022/10/13 02:34:53;;;;;;;35.10;6.93;;;31.20;48.80;;;;;;5086437;28;20088;-67
2022/10/13 02:37:20;;;;;;;38.55;7.95;;;31.20;49.20;;;;;;5091178;28;20069;-67
2022/10/13 02:39:46;;;;;;;44.33;6.95;;;31.10;49.50;;;;;;5095996;28;20064;-67
2022/10/13 02:42:13;;;;;;;34.50;6.70;;;31.10;49.40;;;;;;5088120;28;20126;-67
2022/10/13 02:44:39;;;;;;;40.15;7.60;;;31.00;49.70;;;;;;5088973;28;20076;-66
2022/10/13 02:47:05;;;;;;;40.78;9.32;;;31.00;49.40;;;;;;5087935;28;20076;-69
2022/10/13 02:49:32;;;;;;;43.17;9.25;;;31.00;49.40;;;;;;5088350;28;20123;-67
2022/10/13 02:51:58;;;;;;;53.83;9.48;;;30.90;49.50;;;;;;5087046;28;20072;-67
2022/10/13 02:54:24;;;;;;;38.72;10.90;;;30.90;49.80;;;;;;5084546;28;20576;-67
2022/10/13 02:56:51;;;;;;;52.97;10.90;;;30.90;49.80;;;;;;5092493;28;20072;-68
2022/10/13 02:59:17;;;;;;;63.08;12.80;;;30.90;50.00;;;;;;5094454;28;20077;-66
2022/10/13 03:01:44;;;;;;;50.60;11.88;;;30.80;50.00;;;;;;5088879;28;20085;-67
2022/10/13 03:04:11;;;;;;;50.35;13.07;;;30.80;50.30;;;;;;5095282;28;20545;-68
2022/10/13 03:06:37;;;;;;;60.88;13.75;;;30.80;50.30;;;;;;5088722;28;20099;-69
2022/10/13 03:09:04;;;;;;;69.38;12.13;;;30.80;50.60;;;;;;5089265;28;20166;-68
2022/10/13 03:11:30;;;;;;;56.45;11.48;;;30.70;50.70;;;;;;5086176;28;20077;-68
2022/10/13 03:13:57;;;;;;;53.70;10.73;;;30.70;51.10;;;;;;5087241;28;20119;-68
2022/10/13 03:16:23;;;;;;;63.75;11.05;;;30.70;51.40;;;;;;5088881;28;20069;-68
2022/10/13 03:18:49;;;;;;;41.00;8.93;;;30.70;51.30;;;;;;5087387;28;20069;-70
2022/10/13 03:21:16;;;;;;;53.00;8.68;;;30.70;50.90;;;;;;5088388;28;20092;-68
2022/10/13 03:23:42;;;;;;;41.05;7.82;;;30.70;51.40;;;;;;5091903;28;20122;-68
2022/10/13 03:26:09;;;;;;;40.10;8.48;;;30.70;50.60;;;;;;5091711;28;20084;-67
2022/10/13 03:28:35;;;;;;;46.47;8.93;;;30.70;50.50;;;;;;5097126;28;20533;-67
2022/10/13 03:31:10;;;;;;;47.95;9.43;;;30.60;51.20;;;;;;5086985;28;20085;-68
2022/10/13 03:33:36;;;;;;;43.47;8.90;;;30.60;51.80;;;;;;5087016;28;20179;-68
2022/10/13 03:36:06;;;;;;;44.80;10.38;;;30.60;52.10;;;;;;5090809;28;20085;-67
2022/10/13 03:38:34;;;;;;;50.05;9.43;;;30.50;52.10;;;;;;5092698;28;20072;-67
2022/10/13 03:41:15;;;;;;;49.85;9.93;;;30.50;51.30;;;;;;5091010;28;20195;-68
2022/10/13 03:43:43;;;;;;;52.67;9.80;;;30.40;51.60;;;;;;5098215;28;20470;-68
2022/10/13 03:46:12;;;;;;;42.85;9.75;;;30.40;51.50;;;;;;5090368;28;20077;-67
2022/10/13 03:48:38;;;;;;;36.30;8.23;;;30.40;52.40;;;;;;5091140;28;20609;-68
2022/10/13 03:51:17;;;;;;;44.80;9.45;;;30.20;52.20;;;;;;5090209;28;20106;-68
2022/10/13 03:53:44;;;;;;;43.53;8.95;;;30.20;52.60;;;;;;5088465;28;20092;-66
2022/10/13 03:56:17;;;;;;;52.65;10.38;;;30.10;52.70;;;;;;5089803;28;20068;-68
2022/10/13 03:58:43;;;;;;;52.08;10.57;;;30.10;52.90;;;;;;5092342;28;20072;-69
2022/10/13 04:01:13;;;;;;;56.55;9.80;;;30.00;52.50;;;;;;5089461;28;20092;-67
2022/10/13 04:03:39;;;;;;;52.47;9.57;;;30.00;52.80;;;;;;5093962;28;20171;-67
2022/10/13 04:06:06;;;;;;;51.60;9.75;;;30.00;51.70;;;;;;5090386;28;20080;-67
2022/10/13 04:08:33;;;;;;;54.42;9.93;;;29.90;51.70;;;;;;5097794;28;20529;-67
2022/10/13 04:11:05;;;;;;;61.38;9.63;;;29.90;51.80;;;;;;5090431;28;20208;-68
2022/10/13 04:13:32;;;;;;;54.65;8.60;;;29.90;52.40;;;;;;5095183;28;20109;-68
2022/10/13 04:16:06;;;;;;;48.47;9.05;;;29.90;52.90;;;;;;5094171;28;20061;-68
2022/10/13 04:18:33;;;;;;;60.70;9.13;;;29.80;53.20;;;;;;5090236;28;20072;-69
2022/10/13 04:21:00;;;;;;;69.68;9.38;;;29.80;53.60;;;;;;5089759;28;20076;-68
2022/10/13 04:23:26;;;;;;;61.63;8.63;;;29.60;54.30;;;;;;5090953;28;20516;-68
2022/10/13 04:25:52;;;;;;;46.78;7.80;;;29.60;54.70;;;;;;5094894;28;20571;-70
2022/10/13 04:28:19;;;;;;;47.50;8.23;;;29.60;54.20;;;;;;5089735;28;20551;-68
2022/10/13 04:30:45;;;;;;;46.45;7.63;;;29.50;54.50;;;;;;5089581;28;20529;-67
2022/10/13 04:33:12;;;;;;;43.85;6.63;;;29.40;55.40;;;;;;5089674;28;20553;-66
2022/10/13 04:35:41;;;;;;;34.92;7.32;;;29.30;55.80;;;;;;5089381;28;20549;-69
2022/10/13 04:38:08;;;;;;;65.95;9.45;;;29.20;56.00;;;;;;5091010;28;20073;-68
2022/10/13 04:40:34;;;;;;;66.65;8.55;;;29.10;56.40;;;;;;5092250;28;20081;-68
2022/10/13 04:43:01;;;;;;;46.13;8.25;;;29.00;56.20;;;;;;5088497;28;20075;-69
2022/10/13 04:45:27;;;;;;;45.42;8.43;;;29.00;56.60;;;;;;5090990;28;20545;-67
2022/10/13 04:47:54;;;;;;;46.00;7.35;;;29.00;56.80;;;;;;5089401;28;20106;-70
2022/10/13 04:50:20;;;;;;;63.95;8.63;;;28.90;56.80;;;;;;5091135;28;20084;-67
2022/10/13 04:52:46;;;;;;;40.28;7.90;;;28.90;56.60;;;;;;5090404;28;20530;-67
2022/10/13 04:55:13;;;;;;;51.58;8.18;;;28.90;56.60;;;;;;5086204;28;20560;-67
2022/10/13 04:57:39;;;;;;;40.47;8.75;;;28.80;56.40;;;;;;5088512;28;20065;-67
2022/10/13 05:00:07;;;;;;;29.50;7.13;;;28.80;56.30;;;;;;5090242;28;20130;-67
2022/10/13 05:02:37;;;;;;;43.35;8.70;;;28.80;55.80;;;;;;5089788;28;20083;-64
2022/10/13 05:05:04;;;;;;;41.70;9.13;;;28.80;54.90;;;;;;5088226;28;20795;-64
2022/10/13 05:07:31;;;;;;;56.63;10.55;;;28.80;54.90;;;;;;5090017;28;20078;-64
2022/10/13 05:09:57;;;;;;;69.15;12.23;;;28.80;54.90;;;;;;5090137;28;20087;-66
2022/10/13 05:12:24;;;;;;;52.60;11.00;;;28.80;55.50;;;;;;5089671;28;20095;-66
2022/10/13 05:14:50;;;;;;;53.00;11.45;;;28.70;56.50;;;;;;5089337;28;20200;-65
2022/10/13 05:17:17;;;;;;;54.80;14.00;;;28.70;55.70;;;;;;5088997;28;20067;-66
2022/10/13 05:19:43;;;;;;;58.97;14.13;;;28.60;56.50;;;;;;5096388;28;20127;-65
2022/10/13 05:22:09;;;;;;;55.47;15.45;;;28.60;55.10;;;;;;5091543;28;20099;-66
2022/10/13 05:24:36;;;;;;;59.30;14.65;;;28.60;55.50;;;;;;5093413;28;20114;-67
2022/10/13 05:27:08;;;;;;;73.40;14.50;;;28.50;55.40;;;;;;5093026;28;20129;-66
2022/10/13 05:29:35;;;;;;;54.72;15.35;;;28.50;55.70;;;;;;5098252;28;20154;-67
2022/10/13 05:32:02;;;;;;;42.25;11.23;;;28.50;55.30;;;;;;5089538;28;20064;-65
2022/10/13 05:34:28;;;;;;;32.58;9.02;;;28.50;55.20;;;;;;5089518;28;20167;-66
2022/10/13 05:36:55;;;;;;;28.27;7.35;;;28.50;55.20;;;;;;5098729;28;20536;-67
2022/10/13 05:39:21;;;;;;;34.78;8.70;;;28.60;55.00;;;;;;5089103;28;20154;-66
2022/10/13 05:41:48;;;;;;;36.97;7.40;;;28.60;55.30;;;;;;5088750;28;20068;-66
2022/10/13 05:44:16;;;;;;;19.63;6.10;;;28.50;55.50;;;;;;5095008;28;20075;-65
2022/10/13 05:46:43;;;;;;;20.25;5.95;;;28.40;55.50;;;;;;5088891;28;20071;-65
2022/10/13 05:49:10;;;;;;;16.65;4.40;;;28.40;55.70;;;;;;5090151;28;20121;-65
2022/10/13 05:51:49;;;;;;;21.30;5.30;;;28.40;56.00;;;;;;5088851;28;20433;-67
2022/10/13 05:54:18;;;;;;;23.42;5.00;;;28.30;56.60;;;;;;5089303;28;20542;-67
2022/10/13 05:56:59;;;;;;;26.15;5.40;;;28.30;56.70;;;;;;5086448;28;20496;-67
2022/10/13 05:59:28;;;;;;;24.92;4.97;;;28.30;56.60;;;;;;5088256;28;20098;-67
2022/10/13 06:01:55;;;;;;;27.25;5.05;;;28.20;56.70;;;;;;5088802;28;20080;-67
2022/10/13 06:04:26;;;;;;;29.17;4.68;;;28.20;57.00;;;;;;5088616;28;20848;-67
2022/10/13 06:06:52;;;;;;;17.85;4.20;;;28.20;57.20;;;;;;5088029;28;20075;-67
2022/10/13 06:09:19;;;;;;;26.35;5.93;;;28.10;57.30;;;;;;5089464;28;20080;-66
2022/10/13 06:11:45;;;;;;;29.67;5.72;;;28.10;58.10;;;;;;5088723;28;20096;-66
2022/10/13 06:14:12;;;;;;;27.05;5.55;;;28.10;58.00;;;;;;5089550;28;20614;-68
2022/10/13 06:16:39;;;;;;;35.25;5.45;;;28.00;58.50;;;;;;5088388;28;20554;-67
2022/10/13 06:19:06;;;;;;;25.83;5.80;;;28.00;58.50;;;;;;5087705;28;20083;-67
2022/10/13 06:21:34;;;;;;;19.17;5.10;;;27.90;58.50;;;;;;5086397;28;20079;-67
2022/10/13 06:24:01;;;;;;;27.17;5.05;;;27.80;58.40;;;;;;5088203;28;20446;-67
2022/10/13 06:26:27;;;;;;;14.27;4.60;;;27.80;58.60;;;;;;5088481;28;20070;-68
2022/10/13 06:28:53;;;;;;;29.40;5.15;;;27.80;58.30;;;;;;5088011;28;20450;-61
2022/10/13 06:31:20;;;;;;;20.40;4.72;;;27.80;58.40;;;;;;5086836;28;20073;-62
2022/10/13 06:33:46;;;;;;;28.40;5.35;;;27.80;58.90;;;;;;5090487;28;20090;-62
2022/10/13 06:36:12;;;;;;;30.98;5.68;;;27.80;58.10;;;;;;5086479;28;20068;-60
2022/10/13 06:38:39;;;;;;;21.35;5.22;;;27.70;58.30;;;;;;5087367;28;20075;-61
2022/10/13 06:41:05;;;;;;;16.45;4.20;;;27.70;58.50;;;;;;5088342;28;20154;-62
2022/10/13 06:43:33;;;;;;;18.20;4.70;;;27.70;58.20;;;;;;5088310;28;20067;-63
2022/10/13 06:46:00;;;;;;;29.95;5.25;;;27.70;58.70;;;;;;5088218;28;20077;-62
2022/10/13 06:48:27;;;;;;;19.77;4.53;;;27.70;58.60;;;;;;5085885;28;20835;-62
2022/10/13 06:50:54;;;;;;;25.63;5.40;;;27.60;58.50;;;;;;5088406;28;20074;-62
2022/10/13 06:53:20;;;;;;;29.63;4.90;;;27.60;58.50;;;;;;5087851;28;20068;-62
2022/10/13 06:55:46;;;;;;;25.08;4.50;;;27.60;58.80;;;;;;5087684;28;20088;-62
2022/10/13 06:58:13;;;;;;;21.15;4.75;;;27.60;59.00;;;;;;5085149;28;20434;-63
2022/10/13 07:00:41;;;;;;;18.58;4.53;;;27.60;58.90;;;;;;5086584;28;20569;-62
2022/10/13 07:03:07;;;;;;;17.42;3.58;;;27.60;59.10;;;;;;5087635;28;20096;-62
2022/10/13 07:05:33;;;;;;;18.73;4.82;;;27.50;59.10;;;;;;5085887;28;20094;-62
2022/10/13 07:08:00;;;;;;;14.68;4.38;;;27.50;59.00;;;;;;5087603;28;20077;-63
2022/10/13 07:10:26;;;;;;;12.52;4.05;;;27.60;59.20;;;;;;5088283;28;20420;-62
2022/10/13 07:12:53;;;;;;;15.52;3.92;;;27.50;59.00;;;;;;5088857;28;20455;-61
2022/10/13 07:15:19;;;;;;;28.67;4.85;;;27.50;58.90;;;;;;5091133;28;20601;-62
2022/10/13 07:17:45;;;;;;;16.67;4.30;;;27.50;59.30;;;;;;5091231;28;20159;-62
2022/10/13 07:20:12;;;;;;;12.30;4.13;;;27.50;58.60;;;;;;5091041;28;20064;-63
2022/10/13 07:22:38;;;;;;;16.98;4.72;;;27.40;58.70;;;;;;5090820;28;20063;-62
2022/10/13 07:25:05;;;;;;;20.45;4.53;;;27.40;58.60;;;;;;5089857;28;20091;-61
2022/10/13 07:27:31;;;;;;;13.40;4.95;;;27.30;58.50;;;;;;5091945;28;20551;-62
2022/10/13 07:29:58;;;;;;;12.93;4.43;;;27.40;59.00;;;;;;5091054;28;20470;-60
2022/10/13 07:32:24;;;;;;;11.00;3.97;;;27.30;58.30;;;;;;5088209;28;20088;-60
2022/10/13 07:34:54;;;;;;;11.45;4.18;;;27.30;59.00;;;;;;5090943;28;20449;-61
2022/10/13 07:37:20;;;;;;;14.77;4.43;;;27.30;58.40;;;;;;5090095;28;20056;-61
2022/10/13 07:39:46;;;;;;;14.55;4.65;;;27.30;58.50;;;;;;5091343;28;20095;-62
2022/10/13 07:42:14;;;;;;;12.23;4.32;;;27.30;58.20;;;;;;5091050;28;20065;-61
2022/10/13 07:44:40;;;;;;;15.95;4.13;;;27.30;58.00;;;;;;5091151;28;20129;-62
2022/10/13 07:47:07;;;;;;;16.50;4.63;;;27.30;58.10;;;;;;5092867;28;20077;-63
2022/10/13 07:49:33;;;;;;;9.63;4.13;;;27.30;57.80;;;;;;5088655;28;20079;-62
2022/10/13 07:52:00;;;;;;;16.08;4.18;;;27.40;57.60;;;;;;5095225;28;20080;-62
2022/10/13 07:54:27;;;;;;;9.45;4.15;;;27.30;57.90;;;;;;5090275;28;20095;-61
2022/10/13 07:56:54;;;;;;;9.88;3.70;;;27.30;57.60;;;;;;5088470;28;20205;-61
2022/10/13 07:59:21;;;;;;;13.40;4.40;;;27.30;57.20;;;;;;5089683;28;20084;-62
2022/10/13 08:01:47;;;;;;;17.38;4.00;;;27.30;56.70;;;;;;5089317;28;20544;-60
2022/10/13 08:04:14;;;;;;;13.25;3.83;;;27.30;56.80;;;;;;5090169;28;20079;-62
2022/10/13 08:06:41;;;;;;;7.68;3.70;;;27.40;56.10;;;;;;5090669;28;20071;-60
2022/10/13 08:09:08;;;;;;;7.65;3.50;;;27.40;55.90;;;;;;5090770;28;20428;-61
2022/10/13 08:11:35;;;;;;;14.70;3.97;;;27.40;56.20;;;;;;5090455;28;20091;-60
2022/10/13 08:14:02;;;;;;;12.07;3.53;;;27.40;56.30;;;;;;5090221;28;20114;-63
2022/10/13 08:16:29;;;;;;;6.13;3.45;;;27.40;56.70;;;;;;5092159;28;20465;-60
2022/10/13 08:18:58;;;;;;;12.02;4.30;;;27.40;57.10;;;;;;5089545;28;20068;-60
2022/10/13 08:21:26;;;;;;;14.98;5.00;;;27.40;56.90;;;;;;5089269;28;20117;-61
2022/10/13 08:23:52;;;;;;;10.75;3.85;;;27.40;57.00;;;;;;5089589;28;20068;-61
2022/10/13 08:26:25;;;;;;;13.60;4.38;;;27.40;57.50;;;;;;5089326;28;20075;-62
2022/10/13 08:28:51;;;;;;;11.65;4.82;;;27.40;57.70;;;;;;5091509;28;20067;-62
2022/10/13 08:31:19;;;;;;;14.52;4.72;;;27.30;57.70;;;;;;5089583;28;20068;-61
2022/10/13 08:33:46;;;;;;;12.32;4.65;;;27.40;57.40;;;;;;5089717;28;20077;-62
2022/10/13 08:36:14;;;;;;;14.63;4.53;;;27.40;57.80;;;;;;5090110;28;20083;-62
2022/10/13 08:38:41;;;;;;;10.07;4.50;;;27.40;57.80;;;;;;5088967;28;20072;-61
2022/10/13 08:41:17;;;;;;;12.48;4.65;;;27.40;58.20;;;;;;5088499;28;21039;-60
2022/10/13 08:43:50;;;;;;;13.53;5.00;;;27.40;57.90;;;;;;5090188;28;20075;-61
2022/10/13 08:46:25;;;;;;;11.70;5.63;;;27.40;58.00;;;;;;5088751;28;20171;-62
2022/10/13 08:48:51;;;;;;;9.18;4.47;;;27.30;58.20;;;;;;5089247;28;20118;-62
2022/10/13 08:51:18;;;;;;;9.48;4.93;;;27.40;58.50;;;;;;5090693;28;20068;-62
2022/10/13 08:53:46;;;;;;;11.23;4.65;;;27.40;58.60;;;;;;5090071;28;20422;-62
2022/10/13 08:56:17;;;;;;;10.60;5.05;;;27.30;58.70;;;;;;5090013;28;20151;-61
2022/10/13 08:58:43;;;;;;;7.70;4.63;;;27.30;59.10;;;;;;5087254;28;20103;-61
2022/10/13 09:01:15;;;;;;;11.55;4.97;;;27.30;59.20;;;;;;5090077;28;20226;-61
2022/10/13 09:03:47;;;;;;;9.10;4.88;;;27.30;59.60;;;;;;5089828;28;20064;-61
2022/10/13 09:06:20;;;;;;;12.05;4.57;;;27.20;59.70;;;;;;5090078;28;20084;-61
2022/10/13 09:09:16;;;;;;;12.43;5.10;;;27.20;59.90;;;;;;5089130;28;20515;-62
2022/10/13 09:11:45;;;;;;;14.18;4.50;;;27.20;60.10;;;;;;5027654;28;20108;-61
2022/10/13 09:14:22;;;;;;;7.68;4.50;;;27.20;60.10;;;;;;5027163;28;20474;-61
2022/10/13 09:16:51;;;;;;;9.90;4.45;;;27.10;60.20;;;;;;5027774;28;20077;-61
2022/10/13 09:19:28;;;;;;;10.27;5.07;;;27.00;60.40;;;;;;5028182;28;20078;-61
2022/10/13 09:22:32;;;;;;;11.80;4.75;;;27.00;60.20;;;;;;5027521;28;21219;-62
2022/10/13 09:25:09;;;;;;;10.70;4.85;;;27.00;60.50;;;;;;5025748;28;20420;-62
2022/10/13 09:27:48;;;;;;;6.63;4.43;;;27.00;60.70;;;;;;5026855;28;20097;-62
2022/10/13 09:30:30;;;;;;;13.57;5.10;;;27.00;60.70;;;;;;5026890;28;20077;-62
2022/10/13 09:33:25;;;;;;;7.78;4.43;;;27.00;60.70;;;;;;5026923;28;20128;-62
2022/10/13 09:36:05;;;;;;;13.25;4.32;;;27.00;60.60;;;;;;4967024;28;20142;-62
2022/10/13 09:38:32;;;;;;;13.73;4.35;;;26.90;60.70;;;;;;4967767;28;20472;-62
2022/10/13 09:41:25;;;;;;;10.93;4.45;;;26.90;60.90;;;;;;4968832;28;20126;-62
2022/10/13 09:43:51;;;;;;;7.80;4.00;;;26.90;60.50;;;;;;4966204;28;20102;-62
2022/10/13 09:46:28;;;;;;;6.68;4.00;;;26.90;61.00;;;;;;4967844;28;20093;-62
2022/10/13 09:48:59;;;;;;;13.02;4.43;;;26.80;60.60;;;;;;5005258;28;20082;-62
2022/10/13 09:51:33;;;;;;;6.90;3.95;;;26.80;61.00;;;;;;5009792;28;20160;-61
2022/10/13 09:54:00;;;;;;;7.45;4.25;;;26.80;60.30;;;;;;5006172;28;20116;-61
2022/10/13 09:56:32;;;;;;;14.70;4.30;;;26.80;60.50;;;;;;5008116;28;20161;-62
2022/10/13 09:59:21;;;;;;;11.93;4.32;;;26.80;60.50;;;;;;5006602;28;20114;-61
2022/10/13 10:01:48;;;;;;;10.55;4.53;;;26.80;61.40;;;;;;5004355;28;20094;-62
2022/10/13 10:04:33;;;;;;;11.95;4.40;;;26.80;61.40;;;;;;5006698;28;20080;-61
2022/10/13 10:07:05;;;;;;;10.90;4.47;;;26.70;60.80;;;;;;5006095;28;20077;-62
2022/10/13 10:09:44;;;;;;;6.93;4.13;;;26.80;61.10;;;;;;5006847;28;20113;-61
2022/10/13 10:12:18;;;;;;;10.77;4.63;;;26.70;60.90;;;;;;5045940;28;20556;-61
2022/10/13 10:14:47;;;;;;;9.82;4.43;;;26.70;61.10;;;;;;5091307;28;20106;-60
2022/10/13 10:17:34;;;;;;;10.38;4.85;;;26.70;61.50;;;;;;5088936;28;20602;-61
2022/10/13 10:20:18;;;;;;;9.45;5.20;;;26.70;62.20;;;;;;5087753;28;20155;-62
2022/10/13 10:23:11;;;;;;;13.05;5.18;;;26.60;61.00;;;;;;5088165;28;20093;-60
2022/10/13 10:25:50;;;;;;;10.23;4.72;;;26.60;61.00;;;;;;5087849;28;20077;-61
2022/10/13 10:28:31;;;;;;;9.02;4.97;;;26.60;61.80;;;;;;5088065;28;20107;-61
2022/10/13 10:31:20;;;;;;;9.85;5.15;;;26.50;62.00;;;;;;5089652;28;20072;-60
2022/10/13 10:33:55;;;;;;;15.05;5.45;;;27.00;90.90;;;;;;5088249;28;20087;-60
2022/10/13 10:36:44;;;;;;;13.25;5.18;;;26.60;92.50;;;;;;5088070;28;20075;-60
2022/10/13 10:39:30;;;;;;;7.53;4.88;;;26.40;61.50;;;;;;5057124;28;20577;-60
2022/10/13 10:42:03;;;;;;;10.75;4.53;;;26.40;61.80;;;;;;5092722;28;20119;-61
2022/10/13 10:44:35;;;;;;;12.52;4.47;;;26.40;62.00;;;;;;5087014;28;20355;-62
2022/10/13 10:47:06;;;;;;;12.77;5.20;;;26.40;70.10;;;;;;5090358;28;20168;-61
2022/10/13 10:49:35;;;;;;;9.77;4.43;;;26.30;62.00;;;;;;5091476;28;20039;-62
2022/10/13 10:52:07;;;;;;;10.15;5.30;;;26.30;61.70;;;;;;5096999;28;20073;-60
2022/10/13 10:55:01;;;;;;;9.80;4.45;;;26.60;93.80;;;;;;5091506;28;20180;-62
2022/10/13 10:57:55;;;;;;;9.98;4.53;;;26.30;63.10;;;;;;5090317;28;20019;-62
2022/10/13 11:00:22;;;;;;;10.77;4.05;;;26.30;62.70;;;;;;5089808;28;20166;-61
2022/10/13 11:02:58;;;;;;;9.75;4.90;;;26.20;63.20;;;;;;5088734;28;20175;-63
2022/10/13 11:05:25;;;;;;;9.88;4.75;;;;;;;;;;5092888;28;20063;-62
2022/10/13 11:07:52;;;;;;;19.13;5.90;;;;;;;;;;5092725;28;20076;-61
2022/10/13 11:10:20;;;;;;;14.60;4.45;;;26.70;90.30;;;;;;5092645;28;20111;-62
2022/10/13 11:12:53;;;;;;;12.38;4.88;;;26.00;92.90;;;;;;5091260;28;20057;-62
2022/10/13 11:15:40;;;;;;;9.00;4.38;;;26.30;62.80;;;;;;5090608;28;20067;-61
2022/10/13 11:18:44;;;;;;;13.90;4.47;;;25.80;95.10;;;;;;5091712;28;20551;-62
2022/10/13 11:21:10;;;;;;;8.85;4.47;;;26.00;95.60;;;;;;5090255;28;20083;-61
2022/10/13 11:23:44;;;;;;;12.30;5.15;;;26.00;63.00;;;;;;5090152;28;20042;-61
2022/10/13 11:26:30;;;;;;;10.35;3.83;;;26.20;95.50;;;;;;5089094;28;20404;-60
2022/10/13 11:28:57;;;;;;;13.45;4.53;;;26.00;63.90;;;;;;5091854;28;20066;-63
2022/10/13 11:31:29;;;;;;;9.65;4.70;;;26.00;64.10;;;;;;5090297;28;20081;-61
2022/10/13 11:33:59;;;;;;;12.70;4.82;;;25.60;96.30;;;;;;5098884;28;20046;-60
2022/10/13 11:36:38;;;;;;;8.52;4.13;;;25.50;96.00;;;;;;5091290;28;20126;-61
2022/10/13 11:39:33;;;;;;;13.27;4.47;;;25.70;63.20;;;;;;5094949;28;20048;-62
2022/10/13 11:42:38;;;;;;;9.27;4.68;;;26.40;95.30;;;;;;5088583;28;20056;-61
2022/10/13 11:45:27;;;;;;;11.15;4.80;;;25.80;94.40;;;;;;5016234;28;20434;-62
2022/10/13 11:48:20;;;;;;;11.82;4.50;;;26.10;68.80;;;;;;5015460;28;20058;-61
2022/10/13 11:51:01;;;;;;;12.68;4.63;;;25.00;78.00;;;;;;5018983;28;20099;-62
2022/10/13 11:54:03;;;;;;;11.23;4.38;;;25.70;64.20;;;;;;5018285;28;20064;-62
2022/10/13 11:56:47;;;;;;;10.60;4.47;;;25.60;64.30;;;;;;5015086;28;20094;-62
2022/10/13 11:59:29;;;;;;;11.25;4.53;;;25.60;64.70;;;;;;5010431;28;20137;-62
2022/10/13 12:02:11;;;;;;;9.25;4.75;;;25.50;63.70;;;;;;5006913;28;20106;-62
2022/10/13 12:04:40;;;;;;;10.40;4.78;;;25.60;64.80;;;;;;5012995;28;20525;-62
2022/10/13 12:07:13;;;;;;;16.08;4.65;;;26.10;91.30;;;;;;5012655;28;20159;-62
2022/10/13 12:09:53;;;;;;;10.27;4.55;;;24.90;94.70;;;;;;5013635;28;20586;-61
2022/10/13 12:12:22;;;;;;;11.55;5.20;;;25.50;93.80;;;;;;5009581;28;20085;-61
2022/10/13 12:14:51;;;;;;;9.65;4.13;;;26.00;95.10;;;;;;5009708;28;20574;-61
2022/10/13 12:17:27;;;;;;;15.27;5.18;;;25.90;95.10;;;;;;5011960;28;20168;-61
2022/10/13 12:19:55;;;;;;;13.32;5.03;;;25.40;66.40;;;;;;5037242;28;20086;-62
2022/10/13 12:22:22;;;;;;;11.05;4.80;;;24.70;95.00;;;;;;5095737;28;20087;-62
2022/10/13 12:25:04;;;;;;;12.80;4.97;;;25.30;66.50;;;;;;5089287;28;20068;-62
2022/10/13 12:27:39;;;;;;;14.32;5.40;;;25.30;67.10;;;;;;5089090;28;20077;-61
2022/10/13 12:30:21;;;;;;;27.55;7.32;;;25.30;67.60;;;;;;5088674;28;20076;-61
2022/10/13 12:32:52;;;;;;;18.13;6.70;;;25.30;67.30;;;;;;5089834;28;20076;-60
2022/10/13 12:35:22;;;;;;;15.63;6.20;;;25.20;68.00;;;;;;5091558;28;20121;-61
2022/10/13 12:37:49;;;;;;;14.30;6.43;;;25.20;68.10;;;;;;5089694;28;20089;-61
2022/10/13 12:40:18;;;;;;;17.25;6.07;;;25.10;68.30;;;;;;5088696;28;20159;-62
2022/10/13 12:42:45;;;;;;;18.17;6.40;;;25.10;68.70;;;;;;5090469;28;20549;-61
2022/10/13 12:45:17;;;;;;;18.05;6.43;;;25.10;68.30;;;;;;5089059;28;20072;-62
2022/10/13 12:47:43;;;;;;;15.38;5.82;;;25.10;68.40;;;;;;5089542;28;20076;-61
2022/10/13 12:50:34;;;;;;;16.17;5.10;;;25.00;68.70;;;;;;5090122;28;20160;-61
2022/10/13 12:53:08;;;;;;;24.10;5.63;;;25.00;68.70;;;;;;5081218;28;20171;-61
2022/10/13 12:55:51;;;;;;;16.70;5.78;;;25.00;68.80;;;;;;5090290;28;20149;-62
2022/10/13 12:58:34;;;;;;;20.98;6.78;;;25.50;76.40;;;;;;5093910;28;20528;-61
2022/10/13 13:01:04;;;;;;;22.50;5.50;;;24.70;95.70;;;;;;5091181;28;20075;-62